createdAt,value
2018-09-10T00:00:04.110Z,3.30
2018-09-10T00:02:32.919Z,3.60
2018-09-10T00:05:01.692Z,3.50
2018-09-10T00:07:30.516Z,3.40
2018-09-10T00:09:59.270Z,3.43
2018-09-10T00:12:28.094Z,3.70
2018-09-10T00:14:56.899Z,3.30
2018-09-10T00:17:25.687Z,3.60
2018-09-10T00:19:54.449Z,3.43
2018-09-10T00:22:23.252Z,3.13
2018-09-10T00:24:52.051Z,3.67
2018-09-10T00:27:20.823Z,3.63
2018-09-10T00:29:49.827Z,3.37
2018-09-10T00:32:18.601Z,3.87
2018-09-10T00:34:47.394Z,3.93
2018-09-10T00:37:16.198Z,3.80
2018-09-10T00:39:44.951Z,3.20
2018-09-10T00:42:13.743Z,3.50
2018-09-10T00:44:42.511Z,3.93
2018-09-10T00:47:11.303Z,3.83
2018-09-10T00:49:40.090Z,3.80
2018-09-10T00:52:08.865Z,4.17
2018-09-10T00:54:37.616Z,3.90
2018-09-10T00:57:06.411Z,3.80
2018-09-10T00:59:35.170Z,3.50
2018-09-10T01:02:03.984Z,3.60
2018-09-10T01:04:32.748Z,4.03
2018-09-10T01:07:01.601Z,3.50
2018-09-10T01:09:30.339Z,3.60
2018-09-10T01:11:59.143Z,3.90
2018-09-10T01:14:27.938Z,3.93
2018-09-10T01:16:56.707Z,3.90
2018-09-10T01:19:25.959Z,4.00
2018-09-10T01:21:55.342Z,4.33
2018-09-10T01:24:24.202Z,4.10
2018-09-10T01:26:53.002Z,3.60
2018-09-10T01:29:21.779Z,3.53
2018-09-10T01:31:50.619Z,3.77
2018-09-10T01:34:24.590Z,3.90
2018-09-10T01:36:53.427Z,3.97
2018-09-10T01:39:22.206Z,4.30
2018-09-10T01:41:50.968Z,2.93
2018-09-10T01:44:19.738Z,3.60
2018-09-10T01:46:48.508Z,3.13
2018-09-10T01:49:17.315Z,3.43
2018-09-10T01:51:46.121Z,5.47
2018-09-10T01:54:14.868Z,3.00
2018-09-10T01:56:43.668Z,3.03
2018-09-10T01:59:12.623Z,2.97
2018-09-10T02:01:41.443Z,3.70
2018-09-10T02:04:10.210Z,3.20
2018-09-10T02:06:38.995Z,3.70
2018-09-10T02:09:08.439Z,3.77
2018-09-10T02:11:37.283Z,3.23
2018-09-10T02:14:06.280Z,3.70
2018-09-10T02:16:35.062Z,3.70
2018-09-10T02:19:03.860Z,3.07
2018-09-10T02:21:32.600Z,3.57
2018-09-10T02:24:01.366Z,3.33
2018-09-10T02:26:30.194Z,4.10
2018-09-10T02:28:59.255Z,3.03
2018-09-10T02:31:28.015Z,3.03
2018-09-10T02:33:56.797Z,3.93
2018-09-10T02:36:25.571Z,3.10
2018-09-10T02:38:54.347Z,3.47
2018-09-10T02:41:23.135Z,3.30
2018-09-10T02:43:51.887Z,3.50
2018-09-10T02:46:20.648Z,3.00
2018-09-10T02:48:49.439Z,3.00
2018-09-10T02:51:18.231Z,4.13
2018-09-10T02:53:46.982Z,3.97
2018-09-10T02:56:15.770Z,3.23
2018-09-10T02:58:44.564Z,3.37
2018-09-10T03:01:13.334Z,3.13
2018-09-10T03:03:42.172Z,4.63
2018-09-10T03:06:10.982Z,3.43
2018-09-10T03:08:39.970Z,3.43
2018-09-10T03:11:08.719Z,3.53
2018-09-10T03:13:37.502Z,3.33
2018-09-10T03:18:41.531Z,3.17
2018-09-10T03:21:10.327Z,3.67
2018-09-10T03:23:39.144Z,2.83
2018-09-10T03:26:07.906Z,3.63
2018-09-10T03:28:36.687Z,2.77
2018-09-10T03:31:05.511Z,3.53
2018-09-10T03:33:34.329Z,3.40
2018-09-10T03:36:03.082Z,3.00
2018-09-10T03:38:31.830Z,3.03
2018-09-10T03:41:00.602Z,2.70
2018-09-10T03:43:29.423Z,2.70
2018-09-10T03:45:58.255Z,3.37
2018-09-10T03:48:27.066Z,2.77
2018-09-10T03:50:55.827Z,2.53
2018-09-10T03:53:24.626Z,2.87
2018-09-10T03:55:53.507Z,2.90
2018-09-10T03:58:22.292Z,2.77
2018-09-10T04:00:51.158Z,2.60
2018-09-10T04:03:19.927Z,2.63
2018-09-10T04:05:48.690Z,2.77
2018-09-10T04:08:17.483Z,2.40
2018-09-10T04:10:46.267Z,2.47
2018-09-10T04:13:15.099Z,2.40
2018-09-10T04:15:43.858Z,2.90
2018-09-10T04:18:12.650Z,2.20
2018-09-10T04:20:41.399Z,1.90
2018-09-10T04:23:10.215Z,2.07
2018-09-10T04:25:38.982Z,2.27
2018-09-10T04:28:07.730Z,1.60
2018-09-10T04:30:36.506Z,1.70
2018-09-10T04:33:05.294Z,2.10
2018-09-10T04:35:34.059Z,2.03
2018-09-10T04:38:03.042Z,1.60
2018-09-10T04:40:31.789Z,1.77
2018-09-10T04:43:00.606Z,2.13
2018-09-10T04:45:29.361Z,2.00
2018-09-10T04:47:58.151Z,1.90
2018-09-10T04:50:26.886Z,2.40
2018-09-10T04:52:55.675Z,2.63
2018-09-10T04:55:24.523Z,2.20
2018-09-10T04:57:53.368Z,2.37
2018-09-10T05:00:22.143Z,2.20
2018-09-10T05:02:50.920Z,2.33
2018-09-10T05:05:19.705Z,2.40
2018-09-10T05:07:48.500Z,1.50
2018-09-10T05:10:17.479Z,1.70
2018-09-10T05:12:46.243Z,2.03
2018-09-10T05:15:15.019Z,1.73
2018-09-10T05:17:43.793Z,1.30
2018-09-10T05:20:12.544Z,1.70
2018-09-10T05:22:41.303Z,1.50
2018-09-10T05:25:10.099Z,1.50
2018-09-10T05:27:38.840Z,1.50
2018-09-10T05:30:08.016Z,1.50
2018-09-10T05:32:36.918Z,1.33
2018-09-10T05:35:05.719Z,1.90
2018-09-10T05:37:34.499Z,1.40
2018-09-10T05:40:03.600Z,1.40
2018-09-10T05:42:32.348Z,1.40
2018-09-10T05:45:01.126Z,1.80
2018-09-10T05:47:30.035Z,1.30
2018-09-10T05:49:58.827Z,1.50
2018-09-10T05:52:27.633Z,1.07
2018-09-10T05:54:56.446Z,1.50
2018-09-10T05:57:25.239Z,1.30
2018-09-10T05:59:53.996Z,1.63
2018-09-10T06:02:22.781Z,1.50
2018-09-10T06:04:51.533Z,1.70
2018-09-10T06:07:20.339Z,1.50
2018-09-10T06:09:49.150Z,2.13
2018-09-10T06:12:17.952Z,1.83
2018-09-10T06:14:46.728Z,1.47
2018-09-10T06:17:15.526Z,1.50
2018-09-10T06:19:44.446Z,1.73
2018-09-10T06:22:13.217Z,1.47
2018-09-10T06:24:42.054Z,1.60
2018-09-10T06:27:10.806Z,1.70
2018-09-10T06:29:39.572Z,1.50
2018-09-10T06:32:08.390Z,1.40
2018-09-10T06:34:37.151Z,1.50
2018-09-10T06:37:06.119Z,1.33
2018-09-10T06:39:34.895Z,1.70
2018-09-10T06:42:03.731Z,1.30
2018-09-10T06:44:32.579Z,1.67
2018-09-10T06:47:01.363Z,1.23
2018-09-10T06:49:30.530Z,1.47
2018-09-10T06:51:59.420Z,1.60
2018-09-10T06:54:28.194Z,1.47
2018-09-10T06:56:56.996Z,1.77
2018-09-10T06:59:25.782Z,1.77
2018-09-10T07:01:54.559Z,1.90
2018-09-10T07:04:23.351Z,1.63
2018-09-10T07:06:52.124Z,1.50
2018-09-10T07:09:20.886Z,1.80
2018-09-10T07:11:49.735Z,2.83
2018-09-10T07:14:18.653Z,1.50
2018-09-10T07:16:47.464Z,1.70
2018-09-10T07:19:16.247Z,1.10
2018-09-10T07:21:45.015Z,1.47
2018-09-10T07:24:13.842Z,1.70
2018-09-10T07:26:42.646Z,1.73
2018-09-10T07:29:11.791Z,1.50
2018-09-10T07:31:40.594Z,1.37
2018-09-10T07:34:09.372Z,1.53
2018-09-10T07:36:38.110Z,1.40
2018-09-10T07:39:07.950Z,1.73
2018-09-10T07:41:36.939Z,1.40
2018-09-10T07:44:06.094Z,1.40
2018-09-10T07:46:34.899Z,1.07
2018-09-10T07:49:03.782Z,1.50
2018-09-10T07:51:32.579Z,1.60
2018-09-10T07:54:01.343Z,1.50
2018-09-10T07:56:30.166Z,1.17
2018-09-10T07:58:58.987Z,1.13
2018-09-10T08:01:27.883Z,1.70
2018-09-10T08:03:56.703Z,1.77
2018-09-10T08:06:25.495Z,1.20
2018-09-10T08:08:54.258Z,1.17
2018-09-10T08:11:23.075Z,1.27
2018-09-10T08:13:51.864Z,1.30
2018-09-10T08:16:20.633Z,1.67
2018-09-10T08:18:49.443Z,1.43
2018-09-10T08:21:18.228Z,1.53
2018-09-10T08:23:47.015Z,1.50
2018-09-10T08:26:16.665Z,1.57
2018-09-10T08:28:45.482Z,1.90
2018-09-10T08:31:14.391Z,1.30
2018-09-10T08:33:43.258Z,1.53
2018-09-10T08:36:12.121Z,1.50
2018-09-10T08:38:40.938Z,1.60
2018-09-10T08:41:09.822Z,1.80
2018-09-10T08:43:38.622Z,1.80
2018-09-10T08:46:07.518Z,1.30
2018-09-10T08:48:36.435Z,1.67
2018-09-10T08:51:05.298Z,1.27
2018-09-10T08:53:34.063Z,2.07
2018-09-10T08:56:03.240Z,1.73
2018-09-10T08:58:31.703Z,1.40
2018-09-10T09:01:01.251Z,1.10
2018-09-10T09:03:30.203Z,1.33
2018-09-10T09:05:59.065Z,1.13
2018-09-10T09:08:27.827Z,1.17
2018-09-10T09:10:57.043Z,0.90
2018-09-10T09:13:25.910Z,1.33
2018-09-10T09:15:54.718Z,0.90
2018-09-10T09:18:23.531Z,1.43
2018-09-10T09:23:27.913Z,1.50
2018-09-10T09:25:56.834Z,1.37
2018-09-10T09:28:25.740Z,1.20
2018-09-10T09:30:54.599Z,0.93
2018-09-10T09:33:23.407Z,1.10
2018-09-10T09:35:57.778Z,1.53
2018-09-10T09:38:31.911Z,1.07
2018-09-10T09:41:06.168Z,1.20
2018-09-10T09:43:41.167Z,1.03
2018-09-10T09:46:12.410Z,1.40
2018-09-10T09:48:41.184Z,1.10
2018-09-10T09:51:10.003Z,1.53
2018-09-10T09:53:38.899Z,1.43
2018-09-10T09:56:07.684Z,1.43
2018-09-10T09:58:36.451Z,1.63
2018-09-10T10:01:10.502Z,1.37
2018-09-10T10:03:44.634Z,1.30
2018-09-10T10:06:13.440Z,1.87
2018-09-10T10:08:42.264Z,1.37
2018-09-10T10:11:11.096Z,1.80
2018-09-10T10:13:39.951Z,0.90
2018-09-10T10:16:08.759Z,1.30
2018-09-10T10:18:37.570Z,1.13
2018-09-10T10:21:06.410Z,1.37
2018-09-10T10:23:35.178Z,1.13
2018-09-10T10:26:04.055Z,1.40
2018-09-10T10:28:33.341Z,1.40
2018-09-10T10:31:02.579Z,1.33
2018-09-10T10:33:31.434Z,1.10
2018-09-10T10:36:00.259Z,1.83
2018-09-10T10:38:29.042Z,1.23
2018-09-10T10:40:57.846Z,1.20
2018-09-10T10:43:26.615Z,1.60
2018-09-10T10:45:55.386Z,1.93
2018-09-10T10:48:24.240Z,1.47
2018-09-10T10:50:53.047Z,1.33
2018-09-10T10:53:21.877Z,1.97
2018-09-10T10:55:50.688Z,1.00
2018-09-10T10:58:19.590Z,1.20
2018-09-10T11:00:48.424Z,1.10
2018-09-10T11:03:18.066Z,1.30
2018-09-10T11:05:46.911Z,1.40
2018-09-10T11:08:15.698Z,1.63
2018-09-10T11:10:44.578Z,1.30
2018-09-10T11:13:13.369Z,1.30
2018-09-10T11:15:42.165Z,1.60
2018-09-10T11:18:10.960Z,1.43
2018-09-10T11:20:39.759Z,1.40
2018-09-10T11:23:08.523Z,0.90
2018-09-10T11:25:37.332Z,1.20
2018-09-10T11:28:06.304Z,1.20
2018-09-10T11:30:35.134Z,2.37
2018-09-10T11:33:04.023Z,1.20
2018-09-10T11:35:32.802Z,1.73
2018-09-10T11:38:01.593Z,1.67
2018-09-10T11:40:30.483Z,1.60
2018-09-10T11:42:59.250Z,1.20
2018-09-10T11:45:28.639Z,1.53
2018-09-10T11:47:57.440Z,1.27
2018-09-10T11:50:26.264Z,1.20
2018-09-10T11:52:55.250Z,1.33
2018-09-10T11:55:24.041Z,1.40
2018-09-10T11:57:52.857Z,0.97
2018-09-10T12:00:21.667Z,1.20
2018-09-10T12:02:50.516Z,1.70
2018-09-10T12:05:19.318Z,1.27
2018-09-10T12:07:48.114Z,1.07
2018-09-10T12:10:16.950Z,1.30
2018-09-10T12:12:45.775Z,1.30
2018-09-10T12:15:14.543Z,1.23
2018-09-10T12:17:43.323Z,1.43
2018-09-10T12:20:12.122Z,1.30
2018-09-10T12:22:40.931Z,0.87
2018-09-10T12:25:09.890Z,1.47
2018-09-10T12:27:39.015Z,1.33
2018-09-10T12:30:07.851Z,0.90
2018-09-10T12:32:36.728Z,1.00
2018-09-10T12:35:05.567Z,1.00
2018-09-10T12:37:34.343Z,1.20
2018-09-10T12:40:03.119Z,1.23
2018-09-10T12:42:31.915Z,1.27
2018-09-10T12:45:00.735Z,1.07
2018-09-10T12:47:29.547Z,1.07
2018-09-10T12:49:58.323Z,1.30
2018-09-10T12:52:27.179Z,1.33
2018-09-10T12:54:55.975Z,1.53
2018-09-10T12:57:24.743Z,1.27
2018-09-10T12:59:53.519Z,1.60
2018-09-10T13:02:22.388Z,1.20
2018-09-10T13:04:51.474Z,1.33
2018-09-10T13:07:20.247Z,1.20
2018-09-10T13:09:49.020Z,1.00
2018-09-10T13:12:17.811Z,1.50
2018-09-10T13:14:46.600Z,1.70
2018-09-10T13:17:15.388Z,1.20
2018-09-10T13:19:44.151Z,1.13
2018-09-10T13:22:12.988Z,4.30
2018-09-10T13:24:41.788Z,1.70
2018-09-10T13:27:10.614Z,1.57
2018-09-10T13:29:39.441Z,1.43
2018-09-10T13:32:08.659Z,1.57
2018-09-10T13:34:37.548Z,1.20
2018-09-10T13:37:07.207Z,1.30
2018-09-10T13:39:35.999Z,1.30
2018-09-10T13:42:04.755Z,1.23
2018-09-10T13:44:33.640Z,1.03
2018-09-10T13:47:02.427Z,1.10
2018-09-10T13:49:31.267Z,4.27
2018-09-10T13:52:00.187Z,1.57
2018-09-10T13:54:29.063Z,1.30
2018-09-10T13:56:57.834Z,1.00
2018-09-10T13:59:26.614Z,2.00
2018-09-10T14:01:55.383Z,1.10
2018-09-10T14:04:24.149Z,1.27
2018-09-10T14:06:53.010Z,1.07
2018-09-10T14:09:21.780Z,0.90
2018-09-10T14:11:50.563Z,1.30
2018-09-10T14:14:19.327Z,1.10
2018-09-10T14:16:48.103Z,0.87
2018-09-10T14:19:16.958Z,1.17
2018-09-10T14:21:45.761Z,1.10
2018-09-10T14:24:14.589Z,0.83
2018-09-10T14:26:43.479Z,0.93
2018-09-10T14:29:12.259Z,1.10
2018-09-10T14:31:41.151Z,1.13
2018-09-10T14:34:09.912Z,0.97
2018-09-10T14:36:38.748Z,1.00
2018-09-10T14:39:07.966Z,1.13
2018-09-10T14:41:36.791Z,1.00
2018-09-10T14:44:05.608Z,1.50
2018-09-10T14:46:34.401Z,1.23
2018-09-10T14:49:03.160Z,1.43
2018-09-10T14:51:31.984Z,1.43
2018-09-10T14:54:00.766Z,1.40
2018-09-10T14:56:29.766Z,1.67
2018-09-10T14:58:58.558Z,1.30
2018-09-10T15:01:27.337Z,1.47
2018-09-10T15:03:56.127Z,2.30
2018-09-10T15:06:25.061Z,1.47
2018-09-10T15:08:53.907Z,2.07
2018-09-10T15:11:22.697Z,1.73
2018-09-10T15:13:51.456Z,1.80
2018-09-10T15:16:20.319Z,1.77
2018-09-10T15:18:49.161Z,2.10
2018-09-10T15:21:17.882Z,1.80
2018-09-10T15:23:46.740Z,2.30
2018-09-10T15:26:15.581Z,1.87
2018-09-10T15:28:44.330Z,2.60
2018-09-10T15:31:13.111Z,1.87
2018-09-10T15:33:41.955Z,2.33
2018-09-10T15:36:10.731Z,2.03
2018-09-10T15:38:39.524Z,2.23
2018-09-10T15:41:08.376Z,1.20
2018-09-10T15:43:37.186Z,1.70
2018-09-10T15:46:06.095Z,1.80
2018-09-10T15:48:34.886Z,2.03
2018-09-10T15:51:03.673Z,1.80
2018-09-10T15:53:32.469Z,1.60
2018-09-10T15:56:01.251Z,1.63
2018-09-10T15:58:30.039Z,2.13
2018-09-10T16:00:58.867Z,2.00
2018-09-10T16:03:27.965Z,1.67
2018-09-10T16:05:56.760Z,1.90
2018-09-10T16:08:25.711Z,1.90
2018-09-10T16:10:54.487Z,1.97
2018-09-10T16:13:23.293Z,1.50
2018-09-10T16:15:52.126Z,1.90
2018-09-10T16:18:20.947Z,2.00
2018-09-10T16:20:49.740Z,2.23
2018-09-10T16:23:18.526Z,1.93
2018-09-10T16:25:47.306Z,3.23
2018-09-10T16:28:16.096Z,2.33
2018-09-10T16:30:44.955Z,2.40
2018-09-10T16:33:13.695Z,2.60
2018-09-10T16:35:42.533Z,3.10
2018-09-10T16:38:11.323Z,1.93
2018-09-10T16:40:40.110Z,2.37
2018-09-10T16:43:09.017Z,2.00
2018-09-10T16:45:37.816Z,2.40
2018-09-10T16:48:07.148Z,2.10
2018-09-10T16:50:36.471Z,1.67
2018-09-10T16:53:05.358Z,1.97
2018-09-10T16:55:34.140Z,2.40
2018-09-10T16:58:02.991Z,1.53
2018-09-10T17:00:31.941Z,1.63
2018-09-10T17:03:01.097Z,1.77
2018-09-10T17:05:29.986Z,1.50
2018-09-10T17:07:58.741Z,1.83
2018-09-10T17:10:27.532Z,2.40
2018-09-10T17:12:56.947Z,1.47
2018-09-10T17:15:25.753Z,1.60
2018-09-10T17:17:54.523Z,1.73
2018-09-10T17:20:23.303Z,1.27
2018-09-10T17:22:52.182Z,1.70
2018-09-10T17:25:20.916Z,1.60
2018-09-10T17:27:49.692Z,1.60
2018-09-10T17:30:18.540Z,1.90
2018-09-10T17:32:47.279Z,1.97
2018-09-10T17:35:16.099Z,2.17
2018-09-10T17:37:44.887Z,2.47
2018-09-10T17:40:13.851Z,2.50
2018-09-10T17:42:42.744Z,2.33
2018-09-10T17:45:12.219Z,2.73
2018-09-10T17:47:41.139Z,2.93
2018-09-10T17:50:10.055Z,2.70
2018-09-10T17:52:38.829Z,2.63
2018-09-10T17:55:07.783Z,2.93
2018-09-10T17:57:36.577Z,3.77
2018-09-10T18:00:05.395Z,3.37
2018-09-10T18:02:34.190Z,2.57
2018-09-10T18:05:03.070Z,2.90
2018-09-10T18:07:31.945Z,2.30
2018-09-10T18:10:01.787Z,2.57
2018-09-10T18:12:30.603Z,2.20
2018-09-10T18:14:59.534Z,2.40
2018-09-10T18:17:28.339Z,2.97
2018-09-10T18:19:57.332Z,2.80
2018-09-10T18:22:26.275Z,2.97
2018-09-10T18:24:55.185Z,3.13
2018-09-10T18:27:24.432Z,2.40
2018-09-10T18:29:53.327Z,2.40
2018-09-10T18:32:23.151Z,2.50
2018-09-10T18:34:52.070Z,2.30
2018-09-10T18:37:20.922Z,2.60
2018-09-10T18:39:49.746Z,2.40
2018-09-10T18:42:18.520Z,2.27
2018-09-10T18:44:47.360Z,2.27
2018-09-10T18:47:16.175Z,3.03
2018-09-10T18:49:44.989Z,3.23
2018-09-10T18:52:13.879Z,2.93
2018-09-10T18:54:42.712Z,2.10
2018-09-10T18:57:11.538Z,2.47
2018-09-10T18:59:40.347Z,2.10
2018-09-10T19:02:09.131Z,2.50
2018-09-10T19:04:37.948Z,3.07
2018-09-10T19:07:06.796Z,2.73
2018-09-10T19:09:35.599Z,2.27
2018-09-10T19:12:04.911Z,2.07
2018-09-10T19:14:33.827Z,2.37
2018-09-10T19:17:02.645Z,2.50
2018-09-10T19:19:31.443Z,2.40
2018-09-10T19:22:00.268Z,2.20
2018-09-10T19:24:29.041Z,2.50
2018-09-10T19:26:57.949Z,2.30
2018-09-10T19:29:26.941Z,2.30
2018-09-10T19:31:55.752Z,2.10
2018-09-10T19:34:24.751Z,2.00
2018-09-10T19:36:53.655Z,2.43
2018-09-10T19:39:22.531Z,2.17
2018-09-10T19:41:51.325Z,2.27
2018-09-10T19:44:20.167Z,2.33
2018-09-10T19:46:48.991Z,2.60
2018-09-10T19:49:17.796Z,2.17
2018-09-10T19:51:46.586Z,2.47
2018-09-10T19:54:15.383Z,2.10
2018-09-10T19:56:44.197Z,2.60
2018-09-10T19:59:13.623Z,2.00
2018-09-10T20:01:42.488Z,2.13
2018-09-10T20:04:11.227Z,2.30
2018-09-10T20:06:40.044Z,2.37
2018-09-10T20:09:09.671Z,3.00
2018-09-10T20:11:38.492Z,2.63
2018-09-10T20:14:07.469Z,2.20
2018-09-10T20:16:36.259Z,2.17
2018-09-10T20:19:05.319Z,2.20
2018-09-10T20:21:34.083Z,2.23
2018-09-10T20:24:02.910Z,2.77
2018-09-10T20:26:31.771Z,2.10
2018-09-10T20:29:00.614Z,2.20
2018-09-10T20:31:29.425Z,2.20
2018-09-10T20:34:03.548Z,2.17
2018-09-10T20:36:32.531Z,2.50
2018-09-10T20:39:01.368Z,2.67
2018-09-10T20:41:30.150Z,2.63
2018-09-10T20:43:59.005Z,2.73
2018-09-10T20:46:27.775Z,2.77
2018-09-10T20:48:56.604Z,2.57
2018-09-10T20:51:25.373Z,2.33
2018-09-10T20:53:54.158Z,2.13
2018-09-10T20:56:22.923Z,2.67
2018-09-10T20:58:51.679Z,2.93
2018-09-10T21:01:20.756Z,2.60
2018-09-10T21:03:49.659Z,2.70
2018-09-10T21:06:18.919Z,2.40
2018-09-10T21:08:48.158Z,1.83
2018-09-10T21:11:16.960Z,2.33
2018-09-10T21:13:45.757Z,2.47
2018-09-10T21:16:14.567Z,2.97
2018-09-10T21:18:43.342Z,2.53
2018-09-10T21:21:12.129Z,2.43
2018-09-10T21:23:40.961Z,2.10
2018-09-10T21:26:09.787Z,2.37
2018-09-10T21:28:38.614Z,2.30
2018-09-10T21:31:07.455Z,2.23
2018-09-10T21:33:36.226Z,1.93
2018-09-10T21:36:05.072Z,2.10
2018-09-10T21:38:33.879Z,2.00
2018-09-10T21:41:02.740Z,2.00
2018-09-10T21:43:31.511Z,2.63
2018-09-10T21:46:00.267Z,2.27
2018-09-10T21:48:29.073Z,3.53
2018-09-10T21:50:57.847Z,2.50
2018-09-10T21:53:26.679Z,2.53
2018-09-10T21:55:55.499Z,2.93
2018-09-10T21:58:24.297Z,2.60
2018-09-10T22:00:55.607Z,2.80
2018-09-10T22:03:24.462Z,2.43
2018-09-10T22:05:53.799Z,3.20
2018-09-10T22:08:23.011Z,2.60
2018-09-10T22:10:51.899Z,2.33
2018-09-10T22:13:21.039Z,2.60
2018-09-10T22:15:50.308Z,2.40
2018-09-10T22:18:19.242Z,3.27
2018-09-10T22:20:48.070Z,2.50
2018-09-10T22:23:16.927Z,2.47
2018-09-10T22:25:45.719Z,2.70
2018-09-10T22:28:14.542Z,2.83
2018-09-10T22:30:43.384Z,2.30
2018-09-10T22:33:12.183Z,2.43
2018-09-10T22:35:40.984Z,2.73
2018-09-10T22:38:09.750Z,2.40
2018-09-10T22:40:38.599Z,3.30
2018-09-10T22:43:07.494Z,2.73
2018-09-10T22:45:36.330Z,2.83
2018-09-10T22:48:05.311Z,2.33
2018-09-10T22:50:34.103Z,2.80
2018-09-10T22:53:02.906Z,2.53
2018-09-10T22:55:31.696Z,3.17
2018-09-10T22:58:00.523Z,2.00
2018-09-10T23:00:29.315Z,2.20
2018-09-10T23:02:58.104Z,2.83
2018-09-10T23:05:26.898Z,3.43
2018-09-10T23:07:55.667Z,2.87
2018-09-10T23:10:24.414Z,2.20
2018-09-10T23:12:53.229Z,2.20
2018-09-10T23:15:22.022Z,2.57
2018-09-10T23:17:50.775Z,2.77
2018-09-10T23:20:19.569Z,2.67
2018-09-10T23:22:48.352Z,2.20
2018-09-10T23:25:17.166Z,2.03
2018-09-10T23:27:45.956Z,2.20
2018-09-10T23:30:14.751Z,1.90
2018-09-10T23:32:43.526Z,2.63
2018-09-10T23:35:12.369Z,2.43
2018-09-10T23:37:41.189Z,2.50
2018-09-10T23:40:10.373Z,2.10
2018-09-10T23:42:39.379Z,2.00
2018-09-10T23:45:08.174Z,2.37
2018-09-10T23:47:36.939Z,1.77
2018-09-10T23:50:06.302Z,3.03
2018-09-10T23:52:35.080Z,1.87
2018-09-10T23:55:03.893Z,2.30
2018-09-10T23:57:32.671Z,2.10
